sensor_id;sensor_type;location;lat;lon;timestamp;P1;durP1;ratioP1;P2;durP2;ratioP2
65045;SDS011;54657;52.022;5.534;2023-01-06T00:00:14;5.05;;;2.30;;
65045;SDS011;54657;52.022;5.534;2023-01-06T00:02:39;7.68;;;2.10;;
65045;SDS011;54657;52.022;5.534;2023-01-06T00:05:05;7.22;;;2.22;;
65045;SDS011;54657;52.022;5.534;2023-01-06T00:07:31;5.82;;;2.60;;
65045;SDS011;54657;52.022;5.534;2023-01-06T00:09:57;5.32;;;2.08;;
65045;SDS011;54657;52.022;5.534;2023-01-06T00:12:22;6.50;;;2.67;;
65045;SDS011;54657;52.022;5.534;2023-01-06T00:14:50;6.05;;;2.20;;
65045;SDS011;54657;52.022;5.534;2023-01-06T00:17:16;3.72;;;2.20;;
65045;SDS011;54657;52.022;5.534;2023-01-06T00:19:42;6.65;;;2.17;;
65045;SDS011;54657;52.022;5.534;2023-01-06T00:22:07;4.75;;;2.53;;
65045;SDS011;54657;52.022;5.534;2023-01-06T00:24:33;5.05;;;2.40;;
65045;SDS011;54657;52.022;5.534;2023-01-06T00:26:59;3.03;;;2.30;;
65045;SDS011;54657;52.022;5.534;2023-01-06T00:29:25;5.80;;;2.63;;
65045;SDS011;54657;52.022;5.534;2023-01-06T00:31:50;4.80;;;2.63;;
65045;SDS011;54657;52.022;5.534;2023-01-06T00:34:16;4.03;;;2.20;;
65045;SDS011;54657;52.022;5.534;2023-01-06T00:36:42;4.13;;;2.50;;
65045;SDS011;54657;52.022;5.534;2023-01-06T00:39:09;4.88;;;2.25;;
65045;SDS011;54657;52.022;5.534;2023-01-06T00:41:37;4.43;;;2.60;;
65045;SDS011;54657;52.022;5.534;2023-01-06T00:44:21;6.88;;;2.13;;
65045;SDS011;54657;52.022;5.534;2023-01-06T00:46:47;6.32;;;2.47;;
65045;SDS011;54657;52.022;5.534;2023-01-06T00:49:12;8.60;;;2.72;;
65045;SDS011;54657;52.022;5.534;2023-01-06T00:51:38;6.35;;;2.55;;
65045;SDS011;54657;52.022;5.534;2023-01-06T00:54:07;5.70;;;2.60;;
65045;SDS011;54657;52.022;5.534;2023-01-06T00:56:38;6.82;;;2.53;;
65045;SDS011;54657;52.022;5.534;2023-01-06T00:59:05;7.68;;;2.85;;
65045;SDS011;54657;52.022;5.534;2023-01-06T01:01:32;6.47;;;3.05;;
65045;SDS011;54657;52.022;5.534;2023-01-06T01:03:59;4.57;;;2.67;;
65045;SDS011;54657;52.022;5.534;2023-01-06T01:06:25;3.58;;;2.67;;
65045;SDS011;54657;52.022;5.534;2023-01-06T01:08:54;3.72;;;2.22;;
65045;SDS011;54657;52.022;5.534;2023-01-06T01:11:22;7.20;;;2.90;;
65045;SDS011;54657;52.022;5.534;2023-01-06T01:14:07;3.42;;;2.03;;
65045;SDS011;54657;52.022;5.534;2023-01-06T01:16:34;4.93;;;2.38;;
65045;SDS011;54657;52.022;5.534;2023-01-06T01:18:59;6.70;;;3.10;;
65045;SDS011;54657;52.022;5.534;2023-01-06T01:21:25;6.03;;;2.70;;
65045;SDS011;54657;52.022;5.534;2023-01-06T01:23:51;6.60;;;2.95;;
65045;SDS011;54657;52.022;5.534;2023-01-06T01:26:16;7.20;;;2.55;;
65045;SDS011;54657;52.022;5.534;2023-01-06T01:28:42;5.50;;;2.80;;
65045;SDS011;54657;52.022;5.534;2023-01-06T01:31:08;5.75;;;2.78;;
65045;SDS011;54657;52.022;5.534;2023-01-06T01:33:34;6.32;;;2.60;;
65045;SDS011;54657;52.022;5.534;2023-01-06T01:36:06;5.70;;;2.38;;
65045;SDS011;54657;52.022;5.534;2023-01-06T01:38:33;3.15;;;2.60;;
65045;SDS011;54657;52.022;5.534;2023-01-06T01:40:59;5.85;;;3.00;;
65045;SDS011;54657;52.022;5.534;2023-01-06T01:43:41;2.50;;;2.30;;
65045;SDS011;54657;52.022;5.534;2023-01-06T01:46:07;4.53;;;2.33;;
65045;SDS011;54657;52.022;5.534;2023-01-06T01:48:33;5.93;;;2.38;;
65045;SDS011;54657;52.022;5.534;2023-01-06T01:51:01;3.25;;;2.55;;
65045;SDS011;54657;52.022;5.534;2023-01-06T01:53:37;5.13;;;2.45;;
65045;SDS011;54657;52.022;5.534;2023-01-06T01:56:11;3.83;;;2.20;;
65045;SDS011;54657;52.022;5.534;2023-01-06T01:58:41;6.22;;;2.47;;
65045;SDS011;54657;52.022;5.534;2023-01-06T02:01:09;3.67;;;2.50;;
65045;SDS011;54657;52.022;5.534;2023-01-06T02:03:37;3.88;;;2.55;;
65045;SDS011;54657;52.022;5.534;2023-01-06T02:06:04;2.95;;;2.53;;
65045;SDS011;54657;52.022;5.534;2023-01-06T02:11:02;3.78;;;2.40;;
65045;SDS011;54657;52.022;5.534;2023-01-06T02:13:28;3.20;;;2.45;;
65045;SDS011;54657;52.022;5.534;2023-01-06T02:16:10;4.18;;;2.00;;
65045;SDS011;54657;52.022;5.534;2023-01-06T02:30:14;3.80;;;2.00;;
65045;SDS011;54657;52.022;5.534;2023-01-06T02:35:57;5.28;;;2.60;;
65045;SDS011;54657;52.022;5.534;2023-01-06T02:38:50;3.83;;;2.05;;
65045;SDS011;54657;52.022;5.534;2023-01-06T02:41:40;3.20;;;1.85;;
65045;SDS011;54657;52.022;5.534;2023-01-06T02:44:18;5.57;;;2.00;;
65045;SDS011;54657;52.022;5.534;2023-01-06T02:47:11;1.63;;;1.52;;
65045;SDS011;54657;52.022;5.534;2023-01-06T02:50:05;2.67;;;1.88;;
65045;SDS011;54657;52.022;5.534;2023-01-06T02:55:25;3.22;;;1.55;;
65045;SDS011;54657;52.022;5.534;2023-01-06T03:00:32;2.15;;;1.60;;
65045;SDS011;54657;52.022;5.534;2023-01-06T03:03:01;2.10;;;1.60;;
65045;SDS011;54657;52.022;5.534;2023-01-06T03:05:29;2.97;;;1.40;;
65045;SDS011;54657;52.022;5.534;2023-01-06T03:07:58;3.53;;;1.20;;
65045;SDS011;54657;52.022;5.534;2023-01-06T03:10:29;4.60;;;1.45;;
65045;SDS011;54657;52.022;5.534;2023-01-06T03:13:00;3.67;;;1.40;;
65045;SDS011;54657;52.022;5.534;2023-01-06T03:15:32;4.07;;;1.30;;
65045;SDS011;54657;52.022;5.534;2023-01-06T03:17:59;4.25;;;1.33;;
65045;SDS011;54657;52.022;5.534;2023-01-06T03:20:24;1.27;;;1.17;;
65045;SDS011;54657;52.022;5.534;2023-01-06T03:22:50;3.33;;;1.50;;
65045;SDS011;54657;52.022;5.534;2023-01-06T03:25:16;3.00;;;1.20;;
65045;SDS011;54657;52.022;5.534;2023-01-06T03:27:42;2.30;;;1.33;;
65045;SDS011;54657;52.022;5.534;2023-01-06T03:30:08;4.35;;;1.52;;
65045;SDS011;54657;52.022;5.534;2023-01-06T03:37:47;3.50;;;1.70;;
65045;SDS011;54657;52.022;5.534;2023-01-06T03:42:53;2.92;;;1.50;;
65045;SDS011;54657;52.022;5.534;2023-01-06T03:51:08;3.08;;;1.38;;
65045;SDS011;54657;52.022;5.534;2023-01-06T03:53:44;3.65;;;1.48;;
65045;SDS011;54657;52.022;5.534;2023-01-06T03:56:26;1.35;;;1.20;;
65045;SDS011;54657;52.022;5.534;2023-01-06T03:58:58;3.97;;;1.60;;
65045;SDS011;54657;52.022;5.534;2023-01-06T04:01:27;3.03;;;1.30;;
65045;SDS011;54657;52.022;5.534;2023-01-06T04:03:53;5.05;;;1.75;;
65045;SDS011;54657;52.022;5.534;2023-01-06T04:06:20;4.18;;;1.23;;
65045;SDS011;54657;52.022;5.534;2023-01-06T04:08:46;2.17;;;1.10;;
65045;SDS011;54657;52.022;5.534;2023-01-06T04:11:12;2.75;;;1.20;;
65045;SDS011;54657;52.022;5.534;2023-01-06T04:13:58;5.28;;;1.17;;
65045;SDS011;54657;52.022;5.534;2023-01-06T04:16:24;2.90;;;1.20;;
65045;SDS011;54657;52.022;5.534;2023-01-06T04:18:50;1.15;;;0.73;;
65045;SDS011;54657;52.022;5.534;2023-01-06T04:21:16;4.60;;;1.65;;
65045;SDS011;54657;52.022;5.534;2023-01-06T04:23:41;1.00;;;0.80;;
65045;SDS011;54657;52.022;5.534;2023-01-06T04:26:07;4.35;;;1.67;;
65045;SDS011;54657;52.022;5.534;2023-01-06T04:28:33;2.60;;;1.08;;
65045;SDS011;54657;52.022;5.534;2023-01-06T04:30:59;1.65;;;1.00;;
65045;SDS011;54657;52.022;5.534;2023-01-06T04:33:25;1.83;;;0.82;;
65045;SDS011;54657;52.022;5.534;2023-01-06T04:35:51;2.47;;;1.10;;
65045;SDS011;54657;52.022;5.534;2023-01-06T04:38:17;2.33;;;0.85;;
65045;SDS011;54657;52.022;5.534;2023-01-06T04:40:42;1.05;;;0.88;;
65045;SDS011;54657;52.022;5.534;2023-01-06T04:43:08;3.50;;;1.10;;
65045;SDS011;54657;52.022;5.534;2023-01-06T04:45:40;4.13;;;1.20;;
65045;SDS011;54657;52.022;5.534;2023-01-06T04:48:06;4.70;;;1.25;;
65045;SDS011;54657;52.022;5.534;2023-01-06T04:50:33;2.63;;;0.90;;
65045;SDS011;54657;52.022;5.534;2023-01-06T04:52:58;3.88;;;1.20;;
65045;SDS011;54657;52.022;5.534;2023-01-06T04:55:24;2.33;;;1.33;;
65045;SDS011;54657;52.022;5.534;2023-01-06T04:57:50;2.70;;;1.05;;
65045;SDS011;54657;52.022;5.534;2023-01-06T05:00:15;3.75;;;1.20;;
65045;SDS011;54657;52.022;5.534;2023-01-06T05:02:41;2.20;;;1.30;;
65045;SDS011;54657;52.022;5.534;2023-01-06T05:05:07;1.50;;;0.80;;
65045;SDS011;54657;52.022;5.534;2023-01-06T05:07:33;2.33;;;0.95;;
65045;SDS011;54657;52.022;5.534;2023-01-06T05:09:59;2.03;;;1.02;;
65045;SDS011;54657;52.022;5.534;2023-01-06T05:12:24;2.65;;;1.10;;
65045;SDS011;54657;52.022;5.534;2023-01-06T05:14:50;2.30;;;0.85;;
65045;SDS011;54657;52.022;5.534;2023-01-06T05:17:16;4.20;;;1.05;;
65045;SDS011;54657;52.022;5.534;2023-01-06T05:19:41;1.70;;;1.20;;
65045;SDS011;54657;52.022;5.534;2023-01-06T05:22:08;2.65;;;1.20;;
65045;SDS011;54657;52.022;5.534;2023-01-06T05:24:35;1.52;;;0.90;;
65045;SDS011;54657;52.022;5.534;2023-01-06T05:27:00;3.70;;;1.20;;
65045;SDS011;54657;52.022;5.534;2023-01-06T05:29:26;2.63;;;1.30;;
65045;SDS011;54657;52.022;5.534;2023-01-06T05:31:52;1.90;;;1.05;;
65045;SDS011;54657;52.022;5.534;2023-01-06T05:34:17;2.00;;;1.10;;
65045;SDS011;54657;52.022;5.534;2023-01-06T05:36:43;3.28;;;1.15;;
65045;SDS011;54657;52.022;5.534;2023-01-06T05:39:08;2.40;;;1.10;;
65045;SDS011;54657;52.022;5.534;2023-01-06T05:41:34;1.50;;;0.80;;
65045;SDS011;54657;52.022;5.534;2023-01-06T05:44:00;2.78;;;1.10;;
65045;SDS011;54657;52.022;5.534;2023-01-06T05:46:25;1.67;;;1.00;;
65045;SDS011;54657;52.022;5.534;2023-01-06T05:48:51;1.77;;;0.95;;
65045;SDS011;54657;52.022;5.534;2023-01-06T05:51:16;1.60;;;1.10;;
65045;SDS011;54657;52.022;5.534;2023-01-06T05:53:43;1.30;;;1.20;;
65045;SDS011;54657;52.022;5.534;2023-01-06T05:56:11;1.33;;;1.08;;
65045;SDS011;54657;52.022;5.534;2023-01-06T05:58:38;1.55;;;1.10;;
65045;SDS011;54657;52.022;5.534;2023-01-06T06:01:04;1.35;;;1.00;;
65045;SDS011;54657;52.022;5.534;2023-01-06T06:03:30;2.78;;;1.27;;
65045;SDS011;54657;52.022;5.534;2023-01-06T06:06:00;3.45;;;1.20;;
65045;SDS011;54657;52.022;5.534;2023-01-06T06:08:27;1.48;;;0.90;;
65045;SDS011;54657;52.022;5.534;2023-01-06T06:10:53;1.38;;;1.08;;
65045;SDS011;54657;52.022;5.534;2023-01-06T06:13:18;1.77;;;0.88;;
65045;SDS011;54657;52.022;5.534;2023-01-06T06:15:44;2.38;;;1.00;;
65045;SDS011;54657;52.022;5.534;2023-01-06T06:18:09;2.65;;;1.15;;
65045;SDS011;54657;52.022;5.534;2023-01-06T06:20:35;1.85;;;1.25;;
65045;SDS011;54657;52.022;5.534;2023-01-06T06:23:00;1.25;;;1.10;;
65045;SDS011;54657;52.022;5.534;2023-01-06T06:25:26;2.97;;;0.93;;
65045;SDS011;54657;52.022;5.534;2023-01-06T06:27:56;1.58;;;1.17;;
65045;SDS011;54657;52.022;5.534;2023-01-06T06:30:22;2.05;;;1.10;;
65045;SDS011;54657;52.022;5.534;2023-01-06T06:32:47;5.15;;;1.00;;
65045;SDS011;54657;52.022;5.534;2023-01-06T06:35:13;1.67;;;1.10;;
65045;SDS011;54657;52.022;5.534;2023-01-06T06:37:38;2.70;;;1.15;;
65045;SDS011;54657;52.022;5.534;2023-01-06T06:40:04;1.77;;;1.00;;
65045;SDS011;54657;52.022;5.534;2023-01-06T06:42:30;2.13;;;1.15;;
65045;SDS011;54657;52.022;5.534;2023-01-06T06:44:56;4.00;;;1.58;;
65045;SDS011;54657;52.022;5.534;2023-01-06T06:47:21;1.55;;;1.10;;
65045;SDS011;54657;52.022;5.534;2023-01-06T06:49:47;1.80;;;1.20;;
65045;SDS011;54657;52.022;5.534;2023-01-06T06:52:12;1.45;;;1.15;;
65045;SDS011;54657;52.022;5.534;2023-01-06T06:54:38;1.42;;;1.30;;
65045;SDS011;54657;52.022;5.534;2023-01-06T06:57:03;1.33;;;1.23;;
65045;SDS011;54657;52.022;5.534;2023-01-06T06:59:29;1.50;;;1.35;;
65045;SDS011;54657;52.022;5.534;2023-01-06T07:01:54;4.57;;;1.30;;
65045;SDS011;54657;52.022;5.534;2023-01-06T07:04:20;1.90;;;1.58;;
65045;SDS011;54657;52.022;5.534;2023-01-06T07:06:45;3.15;;;1.80;;
65045;SDS011;54657;52.022;5.534;2023-01-06T07:09:11;1.40;;;1.30;;
65045;SDS011;54657;52.022;5.534;2023-01-06T07:11:36;3.05;;;1.20;;
65045;SDS011;54657;52.022;5.534;2023-01-06T07:14:02;1.40;;;1.30;;
65045;SDS011;54657;52.022;5.534;2023-01-06T07:16:27;2.28;;;1.52;;
65045;SDS011;54657;52.022;5.534;2023-01-06T07:18:54;3.13;;;1.70;;
65045;SDS011;54657;52.022;5.534;2023-01-06T07:21:20;2.13;;;1.65;;
65045;SDS011;54657;52.022;5.534;2023-01-06T07:23:45;2.22;;;2.00;;
65045;SDS011;54657;52.022;5.534;2023-01-06T07:26:11;3.38;;;2.15;;
65045;SDS011;54657;52.022;5.534;2023-01-06T07:28:39;2.28;;;2.17;;
65045;SDS011;54657;52.022;5.534;2023-01-06T07:31:04;2.33;;;2.13;;
65045;SDS011;54657;52.022;5.534;2023-01-06T07:33:30;1.77;;;1.60;;
65045;SDS011;54657;52.022;5.534;2023-01-06T07:35:56;2.15;;;2.05;;
65045;SDS011;54657;52.022;5.534;2023-01-06T07:38:22;2.53;;;2.42;;
65045;SDS011;54657;52.022;5.534;2023-01-06T07:40:48;3.10;;;2.50;;
65045;SDS011;54657;52.022;5.534;2023-01-06T07:43:14;2.63;;;2.42;;
65045;SDS011;54657;52.022;5.534;2023-01-06T07:45:44;2.80;;;2.60;;
65045;SDS011;54657;52.022;5.534;2023-01-06T07:48:11;2.53;;;2.42;;
65045;SDS011;54657;52.022;5.534;2023-01-06T07:50:37;2.88;;;2.63;;
65045;SDS011;54657;52.022;5.534;2023-01-06T07:53:02;2.42;;;2.33;;
65045;SDS011;54657;52.022;5.534;2023-01-06T07:55:28;2.70;;;2.50;;
65045;SDS011;54657;52.022;5.534;2023-01-06T07:57:54;2.70;;;2.50;;
65045;SDS011;54657;52.022;5.534;2023-01-06T08:00:20;2.47;;;2.38;;
65045;SDS011;54657;52.022;5.534;2023-01-06T08:02:46;4.05;;;2.78;;
65045;SDS011;54657;52.022;5.534;2023-01-06T08:05:11;3.10;;;2.42;;
65045;SDS011;54657;52.022;5.534;2023-01-06T08:07:37;2.28;;;1.98;;
65045;SDS011;54657;52.022;5.534;2023-01-06T08:10:03;2.17;;;1.98;;
65045;SDS011;54657;52.022;5.534;2023-01-06T08:12:29;6.45;;;1.80;;
65045;SDS011;54657;52.022;5.534;2023-01-06T08:14:54;3.78;;;1.30;;
65045;SDS011;54657;52.022;5.534;2023-01-06T08:17:20;3.42;;;1.55;;
65045;SDS011;54657;52.022;5.534;2023-01-06T08:19:46;1.20;;;1.20;;
65045;SDS011;54657;52.022;5.534;2023-01-06T08:22:11;3.10;;;1.50;;
65045;SDS011;54657;52.022;5.534;2023-01-06T08:24:37;2.38;;;1.20;;
65045;SDS011;54657;52.022;5.534;2023-01-06T08:27:02;2.45;;;1.40;;
65045;SDS011;54657;52.022;5.534;2023-01-06T08:29:28;2.67;;;1.20;;
65045;SDS011;54657;52.022;5.534;2023-01-06T08:31:53;2.17;;;1.20;;
65045;SDS011;54657;52.022;5.534;2023-01-06T08:34:19;3.40;;;1.20;;
65045;SDS011;54657;52.022;5.534;2023-01-06T08:36:45;3.17;;;1.10;;
65045;SDS011;54657;52.022;5.534;2023-01-06T08:39:12;3.72;;;1.60;;
65045;SDS011;54657;52.022;5.534;2023-01-06T08:41:38;4.60;;;1.45;;
65045;SDS011;54657;52.022;5.534;2023-01-06T08:44:04;2.55;;;1.20;;
65045;SDS011;54657;52.022;5.534;2023-01-06T08:46:30;2.65;;;1.13;;
65045;SDS011;54657;52.022;5.534;2023-01-06T08:48:56;3.33;;;1.42;;
65045;SDS011;54657;52.022;5.534;2023-01-06T08:51:22;3.42;;;1.42;;
65045;SDS011;54657;52.022;5.534;2023-01-06T08:53:52;2.30;;;1.10;;
65045;SDS011;54657;52.022;5.534;2023-01-06T08:56:20;2.22;;;1.50;;
65045;SDS011;54657;52.022;5.534;2023-01-06T08:58:51;5.28;;;1.25;;
65045;SDS011;54657;52.022;5.534;2023-01-06T09:01:19;3.55;;;1.10;;
65045;SDS011;54657;52.022;5.534;2023-01-06T09:03:47;4.18;;;1.73;;
65045;SDS011;54657;52.022;5.534;2023-01-06T09:06:13;4.97;;;1.58;;
65045;SDS011;54657;52.022;5.534;2023-01-06T09:08:39;5.20;;;1.27;;
65045;SDS011;54657;52.022;5.534;2023-01-06T09:11:06;3.25;;;1.33;;
65045;SDS011;54657;52.022;5.534;2023-01-06T09:13:33;3.50;;;1.40;;
65045;SDS011;54657;52.022;5.534;2023-01-06T09:15:59;6.38;;;1.38;;
65045;SDS011;54657;52.022;5.534;2023-01-06T09:18:26;7.50;;;1.70;;
65045;SDS011;54657;52.022;5.534;2023-01-06T09:20:51;2.83;;;1.40;;
65045;SDS011;54657;52.022;5.534;2023-01-06T09:23:17;5.05;;;1.30;;
65045;SDS011;54657;52.022;5.534;2023-01-06T09:25:43;5.15;;;1.50;;
65045;SDS011;54657;52.022;5.534;2023-01-06T09:28:08;3.83;;;1.52;;
65045;SDS011;54657;52.022;5.534;2023-01-06T09:30:34;2.95;;;1.23;;
65045;SDS011;54657;52.022;5.534;2023-01-06T09:33:00;4.68;;;1.38;;
65045;SDS011;54657;52.022;5.534;2023-01-06T09:35:26;7.45;;;2.28;;
65045;SDS011;54657;52.022;5.534;2023-01-06T09:37:51;4.75;;;1.42;;
65045;SDS011;54657;52.022;5.534;2023-01-06T09:40:18;4.97;;;1.50;;
65045;SDS011;54657;52.022;5.534;2023-01-06T09:42:57;3.92;;;1.42;;
65045;SDS011;54657;52.022;5.534;2023-01-06T09:45:33;5.75;;;1.20;;
65045;SDS011;54657;52.022;5.534;2023-01-06T09:48:04;4.07;;;1.42;;
65045;SDS011;54657;52.022;5.534;2023-01-06T09:50:41;3.78;;;1.23;;
65045;SDS011;54657;52.022;5.534;2023-01-06T09:53:14;4.63;;;1.45;;
65045;SDS011;54657;52.022;5.534;2023-01-06T09:55:51;4.22;;;1.20;;
65045;SDS011;54657;52.022;5.534;2023-01-06T09:58:23;5.57;;;1.42;;
65045;SDS011;54657;52.022;5.534;2023-01-06T10:00:55;5.90;;;1.42;;
65045;SDS011;54657;52.022;5.534;2023-01-06T10:03:25;3.75;;;1.55;;
65045;SDS011;54657;52.022;5.534;2023-01-06T10:08:42;4.70;;;1.10;;
65045;SDS011;54657;52.022;5.534;2023-01-06T10:13:42;5.30;;;1.30;;
65045;SDS011;54657;52.022;5.534;2023-01-06T10:16:32;3.95;;;1.00;;
65045;SDS011;54657;52.022;5.534;2023-01-06T10:19:29;9.15;;;1.20;;
65045;SDS011;54657;52.022;5.534;2023-01-06T10:25:40;4.13;;;1.20;;
65045;SDS011;54657;52.022;5.534;2023-01-06T10:28:12;4.25;;;1.08;;
65045;SDS011;54657;52.022;5.534;2023-01-06T10:30:47;7.78;;;1.60;;
65045;SDS011;54657;52.022;5.534;2023-01-06T10:33:23;4.70;;;1.20;;
65045;SDS011;54657;52.022;5.534;2023-01-06T10:35:51;3.72;;;0.90;;
65045;SDS011;54657;52.022;5.534;2023-01-06T10:38:23;3.78;;;0.80;;
65045;SDS011;54657;52.022;5.534;2023-01-06T10:40:54;8.40;;;1.50;;
65045;SDS011;54657;52.022;5.534;2023-01-06T10:43:23;3.08;;;0.93;;
65045;SDS011;54657;52.022;5.534;2023-01-06T10:45:49;4.80;;;1.08;;
65045;SDS011;54657;52.022;5.534;2023-01-06T10:48:19;2.83;;;0.90;;
65045;SDS011;54657;52.022;5.534;2023-01-06T10:50:50;6.03;;;0.98;;
65045;SDS011;54657;52.022;5.534;2023-01-06T10:53:16;5.20;;;0.90;;
65045;SDS011;54657;52.022;5.534;2023-01-06T10:55:46;5.15;;;0.93;;
65045;SDS011;54657;52.022;5.534;2023-01-06T11:01:07;4.75;;;0.90;;
65045;SDS011;54657;52.022;5.534;2023-01-06T11:03:35;5.22;;;1.23;;
65045;SDS011;54657;52.022;5.534;2023-01-06T11:06:06;4.30;;;0.82;;
65045;SDS011;54657;52.022;5.534;2023-01-06T11:08:42;5.85;;;1.02;;
65045;SDS011;54657;52.022;5.534;2023-01-06T11:11:10;3.92;;;0.90;;
65045;SDS011;54657;52.022;5.534;2023-01-06T11:13:37;5.35;;;0.90;;
65045;SDS011;54657;52.022;5.534;2023-01-06T11:16:05;3.80;;;0.73;;
65045;SDS011;54657;52.022;5.534;2023-01-06T11:18:42;4.88;;;0.70;;
65045;SDS011;54657;52.022;5.534;2023-01-06T11:23:36;2.70;;;0.80;;
65045;SDS011;54657;52.022;5.534;2023-01-06T11:26:13;5.88;;;0.90;;
65045;SDS011;54657;52.022;5.534;2023-01-06T11:28:42;3.50;;;0.93;;
65045;SDS011;54657;52.022;5.534;2023-01-06T11:31:14;5.15;;;0.88;;
65045;SDS011;54657;52.022;5.534;2023-01-06T11:36:24;2.75;;;0.73;;
65045;SDS011;54657;52.022;5.534;2023-01-06T11:41:45;4.13;;;0.70;;
65045;SDS011;54657;52.022;5.534;2023-01-06T11:46:46;4.20;;;1.05;;
65045;SDS011;54657;52.022;5.534;2023-01-06T11:49:17;4.93;;;0.70;;
65045;SDS011;54657;52.022;5.534;2023-01-06T11:52:00;3.20;;;0.70;;
65045;SDS011;54657;52.022;5.534;2023-01-06T11:54:34;3.30;;;0.93;;
65045;SDS011;54657;52.022;5.534;2023-01-06T11:57:07;4.03;;;0.80;;
65045;SDS011;54657;52.022;5.534;2023-01-06T12:00:23;4.88;;;0.65;;
65045;SDS011;54657;52.022;5.534;2023-01-06T12:11:20;3.05;;;1.00;;
65045;SDS011;54657;52.022;5.534;2023-01-06T12:13:53;4.55;;;0.75;;
65045;SDS011;54657;52.022;5.534;2023-01-06T12:16:20;3.78;;;0.68;;
65045;SDS011;54657;52.022;5.534;2023-01-06T12:19:13;6.15;;;2.88;;
65045;SDS011;54657;52.022;5.534;2023-01-06T12:21:46;6.32;;;2.65;;
65045;SDS011;54657;52.022;5.534;2023-01-06T12:24:12;6.03;;;1.63;;
65045;SDS011;54657;52.022;5.534;2023-01-06T12:26:42;4.05;;;1.48;;
65045;SDS011;54657;52.022;5.534;2023-01-06T12:29:09;4.97;;;1.48;;
65045;SDS011;54657;52.022;5.534;2023-01-06T12:34:36;8.43;;;2.05;;
65045;SDS011;54657;52.022;5.534;2023-01-06T12:37:09;3.55;;;1.35;;
65045;SDS011;54657;52.022;5.534;2023-01-06T12:39:46;3.22;;;0.80;;
65045;SDS011;54657;52.022;5.534;2023-01-06T12:42:22;5.05;;;1.20;;
65045;SDS011;54657;52.022;5.534;2023-01-06T12:45:35;2.60;;;0.70;;
65045;SDS011;54657;52.022;5.534;2023-01-06T12:47:50;3.97;;;0.80;;
65045;SDS011;54657;52.022;5.534;2023-01-06T12:52:58;4.43;;;2.42;;
65045;SDS011;54657;52.022;5.534;2023-01-06T13:01:11;4.70;;;1.00;;
65045;SDS011;54657;52.022;5.534;2023-01-06T13:09:09;2.00;;;0.50;;
65045;SDS011;54657;52.022;5.534;2023-01-06T13:11:53;2.63;;;0.80;;
65045;SDS011;54657;52.022;5.534;2023-01-06T13:17:33;2.05;;;0.60;;
65045;SDS011;54657;52.022;5.534;2023-01-06T13:20:05;2.80;;;0.90;;
65045;SDS011;54657;52.022;5.534;2023-01-06T13:28:31;3.05;;;1.60;;
65045;SDS011;54657;52.022;5.534;2023-01-06T13:40:08;3.58;;;1.70;;
65045;SDS011;54657;52.022;5.534;2023-01-06T13:45:06;6.03;;;1.60;;
65045;SDS011;54657;52.022;5.534;2023-01-06T13:47:56;2.03;;;1.40;;
65045;SDS011;54657;52.022;5.534;2023-01-06T13:50:24;2.85;;;1.25;;
65045;SDS011;54657;52.022;5.534;2023-01-06T13:52:51;1.85;;;1.10;;
65045;SDS011;54657;52.022;5.534;2023-01-06T13:57:47;4.28;;;2.45;;
65045;SDS011;54657;52.022;5.534;2023-01-06T14:07:50;3.40;;;1.80;;
65045;SDS011;54657;52.022;5.534;2023-01-06T14:10:31;5.65;;;2.17;;
65045;SDS011;54657;52.022;5.534;2023-01-06T14:15:57;4.43;;;2.53;;
65045;SDS011;54657;52.022;5.534;2023-01-06T14:21:01;7.72;;;3.60;;
65045;SDS011;54657;52.022;5.534;2023-01-06T14:23:30;4.45;;;2.20;;
65045;SDS011;54657;52.022;5.534;2023-01-06T14:25:56;2.63;;;1.13;;
65045;SDS011;54657;52.022;5.534;2023-01-06T14:28:23;4.18;;;1.33;;
65045;SDS011;54657;52.022;5.534;2023-01-06T14:33:51;8.45;;;4.10;;
65045;SDS011;54657;52.022;5.534;2023-01-06T14:36:19;8.05;;;3.22;;
65045;SDS011;54657;52.022;5.534;2023-01-06T14:38:53;4.68;;;2.40;;
65045;SDS011;54657;52.022;5.534;2023-01-06T14:41:29;4.07;;;1.70;;
65045;SDS011;54657;52.022;5.534;2023-01-06T14:44:00;5.35;;;1.75;;
65045;SDS011;54657;52.022;5.534;2023-01-06T14:46:31;6.05;;;1.88;;
65045;SDS011;54657;52.022;5.534;2023-01-06T14:49:32;5.63;;;1.40;;
65045;SDS011;54657;52.022;5.534;2023-01-06T14:52:02;5.93;;;1.52;;
65045;SDS011;54657;52.022;5.534;2023-01-06T14:54:36;5.07;;;1.27;;
65045;SDS011;54657;52.022;5.534;2023-01-06T14:57:21;5.28;;;1.45;;
65045;SDS011;54657;52.022;5.534;2023-01-06T15:02:32;4.28;;;1.60;;
65045;SDS011;54657;52.022;5.534;2023-01-06T15:04:58;5.75;;;2.13;;
65045;SDS011;54657;52.022;5.534;2023-01-06T15:07:25;7.40;;;2.03;;
65045;SDS011;54657;52.022;5.534;2023-01-06T15:09:50;5.47;;;2.00;;
65045;SDS011;54657;52.022;5.534;2023-01-06T15:12:34;4.25;;;2.75;;
65045;SDS011;54657;52.022;5.534;2023-01-06T15:17:59;4.78;;;2.05;;
65045;SDS011;54657;52.022;5.534;2023-01-06T15:20:28;4.03;;;1.73;;
65045;SDS011;54657;52.022;5.534;2023-01-06T15:22:59;8.10;;;3.45;;
65045;SDS011;54657;52.022;5.534;2023-01-06T15:25:26;7.00;;;4.05;;
65045;SDS011;54657;52.022;5.534;2023-01-06T15:27:53;8.10;;;5.22;;
65045;SDS011;54657;52.022;5.534;2023-01-06T15:30:21;8.85;;;4.25;;
65045;SDS011;54657;52.022;5.534;2023-01-06T15:32:50;4.35;;;2.63;;
65045;SDS011;54657;52.022;5.534;2023-01-06T15:35:18;4.93;;;2.97;;
65045;SDS011;54657;52.022;5.534;2023-01-06T15:37:47;4.65;;;2.60;;
65045;SDS011;54657;52.022;5.534;2023-01-06T15:40:22;7.47;;;2.75;;
65045;SDS011;54657;52.022;5.534;2023-01-06T15:42:47;9.20;;;3.55;;
65045;SDS011;54657;52.022;5.534;2023-01-06T15:45:31;8.70;;;4.53;;
65045;SDS011;54657;52.022;5.534;2023-01-06T15:47:59;7.82;;;4.10;;
65045;SDS011;54657;52.022;5.534;2023-01-06T15:50:32;4.25;;;2.33;;
65045;SDS011;54657;52.022;5.534;2023-01-06T15:52:59;6.88;;;5.00;;
65045;SDS011;54657;52.022;5.534;2023-01-06T15:58:07;6.38;;;3.78;;
65045;SDS011;54657;52.022;5.534;2023-01-06T16:00:42;5.45;;;2.75;;
65045;SDS011;54657;52.022;5.534;2023-01-06T16:03:17;7.72;;;4.05;;
65045;SDS011;54657;52.022;5.534;2023-01-06T16:05:46;8.05;;;2.65;;
65045;SDS011;54657;52.022;5.534;2023-01-06T16:08:25;7.43;;;3.90;;
65045;SDS011;54657;52.022;5.534;2023-01-06T16:13:40;7.65;;;5.03;;
65045;SDS011;54657;52.022;5.534;2023-01-06T16:16:22;7.93;;;2.95;;
65045;SDS011;54657;52.022;5.534;2023-01-06T16:18:53;4.97;;;3.20;;
65045;SDS011;54657;52.022;5.534;2023-01-06T16:28:53;6.00;;;2.63;;
65045;SDS011;54657;52.022;5.534;2023-01-06T16:31:33;7.80;;;2.50;;
65045;SDS011;54657;52.022;5.534;2023-01-06T16:34:13;7.10;;;2.63;;
65045;SDS011;54657;52.022;5.534;2023-01-06T16:36:41;7.43;;;2.50;;
65045;SDS011;54657;52.022;5.534;2023-01-06T16:39:07;4.43;;;3.08;;
65045;SDS011;54657;52.022;5.534;2023-01-06T16:41:32;8.15;;;3.80;;
65045;SDS011;54657;52.022;5.534;2023-01-06T16:43:58;7.57;;;2.58;;
65045;SDS011;54657;52.022;5.534;2023-01-06T16:46:23;5.88;;;3.17;;
65045;SDS011;54657;52.022;5.534;2023-01-06T16:48:55;12.93;;;5.75;;
65045;SDS011;54657;52.022;5.534;2023-01-06T16:51:29;13.90;;;5.45;;
65045;SDS011;54657;52.022;5.534;2023-01-06T16:53:55;7.35;;;3.30;;
65045;SDS011;54657;52.022;5.534;2023-01-06T16:56:21;6.35;;;3.13;;
65045;SDS011;54657;52.022;5.534;2023-01-06T16:58:56;5.53;;;2.60;;
65045;SDS011;54657;52.022;5.534;2023-01-06T17:01:22;5.28;;;2.70;;
65045;SDS011;54657;52.022;5.534;2023-01-06T17:03:56;2.85;;;1.95;;
65045;SDS011;54657;52.022;5.534;2023-01-06T17:08:50;3.53;;;2.08;;
65045;SDS011;54657;52.022;5.534;2023-01-06T17:11:19;5.28;;;3.20;;
65045;SDS011;54657;52.022;5.534;2023-01-06T17:13:51;4.97;;;2.83;;
65045;SDS011;54657;52.022;5.534;2023-01-06T17:16:20;5.70;;;2.78;;
65045;SDS011;54657;52.022;5.534;2023-01-06T17:18:52;4.60;;;2.70;;
65045;SDS011;54657;52.022;5.534;2023-01-06T17:21:21;6.03;;;2.85;;
65045;SDS011;54657;52.022;5.534;2023-01-06T17:23:57;8.57;;;5.38;;